Terminal Aerodrome Forecast
Issued by NWS

Home | Current Version | Previous Version | Text Only | Print | Product List | Glossary Off
Versions: 1 2 3 4 5 6 7 8 9 10 11 12 13 14 15 16 17 18 19 20 21

000
FTUS43 KICT 190547
TAFSLN
TAF
KSLN 190547Z 1906/2006 16009KT P6SM SCT015
     FM190800 16007KT P6SM OVC013
     FM191100 17009KT 4SM BR OVC007
     FM191400 16009KT 3SM BR OVC005
     FM192100 14007KT 5SM BR OVC007
      AMD NOT SKED=

USA.gov is the U.S. government's official web portal to all federal, state and local government web resources and services.